Time;durP1;ratioP1;P1;durP2;ratioP2;P2;SDS_P1;SDS_P2;PMS_P1;PMS_P2;Temp;Humidity;BMP_temperature;BMP_pressure;BME280_temperature;BME280_humidity;BME280_pressure;Samples;Min_cycle;Max_cycle;Signal;HPM_P1;HPM_P2
2022/09/20 00:02:16;;;;;;;6.75;3.75;;;;;;;11.58;78.52;99905.62;1681448;85;21106;-65
2022/09/20 00:04:48;;;;;;;7.10;3.55;;;;;;;11.59;78.60;99909.20;1681436;84;21055;-64
2022/09/20 00:07:19;;;;;;;12.45;4.58;;;;;;;11.58;78.62;99910.27;1643387;86;21577;-65
2022/09/20 00:09:49;;;;;;;11.40;5.42;;;;;;;11.56;78.63;99903.63;1647802;87;21532;-67
2022/09/20 00:12:19;;;;;;;13.08;6.15;;;;;;;11.57;78.68;99900.34;1680451;85;21759;-67
2022/09/20 00:14:51;;;;;;;16.20;7.05;;;;;;;11.58;78.64;99897.39;1680492;85;21091;-66
2022/09/20 00:17:22;;;;;;;11.70;5.90;;;;;;;11.57;78.65;99894.33;1682710;84;21077;-66
2022/09/20 00:19:51;;;;;;;15.43;7.28;;;;;;;11.58;78.68;99896.02;1695021;82;21111;-66
2022/09/20 00:22:20;;;;;;;13.60;7.00;;;;;;;11.58;78.69;99895.17;1667547;86;21472;-67
2022/09/20 00:24:50;;;;;;;14.00;6.53;;;;;;;11.59;78.85;99902.34;1703564;84;21472;-65
2022/09/20 00:27:20;;;;;;;12.47;5.70;;;;;;;11.58;78.93;99902.87;1667353;85;21029;-66
2022/09/20 00:29:52;;;;;;;10.98;5.05;;;;;;;11.55;78.98;99898.34;1667363;86;21539;-65
2022/09/20 00:32:21;;;;;;;9.63;5.08;;;;;;;11.53;79.09;99897.20;1703501;84;21537;-65
2022/09/20 00:35:13;;;;;;;12.25;5.90;;;;;;;11.51;79.18;99892.45;1703564;84;21461;-66
2022/09/20 00:37:41;;;;;;;11.05;5.33;;;;;;;11.47;79.36;99891.73;1703701;84;21110;-66
2022/09/20 00:40:20;;;;;;;12.73;5.37;;;;;;;11.42;79.64;99891.01;1673001;85;21047;-68
2022/09/20 00:42:50;;;;;;;9.50;4.80;;;;;;;11.37;79.76;99891.66;1710383;84;21036;-66
2022/09/20 00:45:27;;;;;;;11.68;4.80;;;;;;;11.33;79.89;99892.30;1710366;84;21059;-66
2022/09/20 00:48:06;;;;;;;11.45;5.10;;;;;;;11.32;80.05;99894.73;1702642;82;21040;-65
2022/09/20 00:50:44;;;;;;;11.00;5.40;;;;;;;11.31;80.16;99890.30;1739678;82;20988;-66
2022/09/20 00:53:25;;;;;;;14.05;6.35;;;;;;;11.28;80.34;99894.31;1739791;82;21456;-65
2022/09/20 00:56:08;;;;;;;15.63;7.15;;;;;;;11.24;80.51;99897.17;1739801;82;21203;-67
2022/09/20 00:58:41;;;;;;;22.40;8.33;;;;;;;11.24;80.56;99897.70;1704569;84;21036;-66
2022/09/20 01:01:10;;;;;;;15.88;8.00;;;;;;;11.22;80.66;99898.45;1736468;82;21012;-65
2022/09/20 01:03:41;;;;;;;18.27;9.28;;;;;;;11.20;80.73;99899.19;1703563;82;21091;-65
2022/09/20 01:06:12;;;;;;;21.02;10.18;;;;;;;11.14;80.82;99893.19;1685773;84;21131;-64
2022/09/20 01:08:44;;;;;;;26.77;12.78;;;;;;;11.08;80.97;99895.73;1703586;84;21079;-65
2022/09/20 01:11:13;;;;;;;27.80;11.38;;;;;;;11.06;81.07;99897.84;1669765;85;21456;-65
2022/09/20 01:13:44;;;;;;;24.85;10.08;;;;;;;11.03;81.11;99892.75;1710534;83;21572;-65
2022/09/20 01:16:14;;;;;;;21.60;9.20;;;;;;;11.04;81.11;99893.06;1710429;84;21107;-66
2022/09/20 01:18:44;;;;;;;23.52;10.80;;;;;;;11.04;81.02;99895.81;1710711;83;21060;-66
2022/09/20 01:21:16;;;;;;;22.98;9.55;;;;;;;11.04;81.00;99893.59;1710460;84;21028;-66
2022/09/20 01:24:08;;;;;;;27.95;12.53;;;;;;;11.01;81.17;99896.77;1710456;84;21072;-65
2022/09/20 01:26:58;;;;;;;26.27;11.68;;;;;;;10.97;81.21;99900.45;1738679;82;21043;-66
2022/09/20 01:29:48;;;;;;;23.42;10.05;;;;;;;10.90;81.24;99897.41;1740002;82;21106;-65
2022/09/20 01:32:21;;;;;;;19.87;7.55;;;;;;;10.87;81.44;99899.20;1727055;82;21067;-65
2022/09/20 01:34:54;;;;;;;18.77;7.50;;;;;;;10.85;81.57;99893.09;1740235;82;21107;-65
2022/09/20 01:37:33;;;;;;;14.28;5.97;;;;;;;10.85;81.71;99894.46;1740073;82;21016;-64
2022/09/20 01:40:45;;;;;;;9.48;4.67;;;;;;;10.84;81.83;99901.00;1741273;82;21499;-66
2022/09/20 01:43:26;;;;;;;9.50;3.60;;;;;;;10.82;81.93;99896.25;1740226;82;21487;-65
2022/09/20 01:45:58;;;;;;;9.48;4.17;;;;;;;10.81;81.94;99898.16;1738988;82;21067;-65
2022/09/20 01:48:32;;;;;;;8.20;3.77;;;;;;;10.77;81.95;99893.63;1685222;84;21079;-66
2022/09/20 01:51:41;;;;;;;10.13;3.90;;;;;;;10.76;82.07;99890.56;1739831;82;21383;-67
2022/09/20 01:54:26;;;;;;;;;;;;;;;10.78;82.14;99897.20;1742404;82;21063;-64
2022/09/20 01:57:24;;;;;;;10.85;4.78;;;;;;;10.74;82.31;99892.67;1740061;82;20182;-66
2022/09/20 02:00:17;;;;;;;8.28;4.33;;;;;;;10.73;82.54;99892.89;1704630;84;21036;-65
2022/09/20 02:03:08;;;;;;;7.08;4.12;;;;;;;10.74;82.73;99894.57;1739975;82;21075;-65
2022/09/20 02:06:19;;;;;;;8.30;3.92;;;;;;;10.75;82.96;99888.03;1739059;82;21642;-66
2022/09/20 02:09:06;;;;;;;9.38;4.62;;;;;;;10.73;82.86;99888.77;1739911;82;21059;-66
2022/09/20 02:11:55;;;;;;;9.05;4.25;;;;;;;10.68;83.02;99884.45;1740049;82;21486;-66
2022/09/20 02:14:36;;;;;;;11.03;4.45;;;;;;;10.68;83.24;99887.20;1740419;82;21013;-66
2022/09/20 02:17:33;;;;;;;8.28;3.70;;;;;;;10.65;83.18;99891.73;1739955;82;21016;-66
2022/09/20 02:20:14;;;;;;;8.95;3.45;;;;;;;10.63;83.20;99886.98;1737265;82;21051;-66
2022/09/20 02:23:05;;;;;;;8.48;4.10;;;;;;;10.66;83.26;99894.78;1704897;84;21530;-65
2022/09/20 02:26:04;;;;;;;6.92;3.55;;;;;;;10.70;83.14;99901.53;1739902;82;21059;-65
2022/09/20 02:29:12;;;;;;;9.55;3.12;;;;;;;10.71;82.97;99897.73;1704624;84;21032;-67
2022/09/20 02:32:01;;;;;;;5.20;2.95;;;;;;;10.70;82.90;99893.31;1740171;82;21071;-67
2022/09/20 02:34:52;;;;;;;6.47;2.65;;;;;;;10.68;82.77;99892.67;1740018;82;21083;-66
2022/09/20 02:38:02;;;;;;;8.03;2.83;;;;;;;10.65;82.57;99896.68;1739849;82;21047;-65
2022/09/20 02:40:43;;;;;;;9.30;2.62;;;;;;;10.62;82.62;99890.25;1648938;87;21487;-66
2022/09/20 02:43:52;;;;;;;5.92;2.77;;;;;;;10.59;82.51;99893.41;1680346;84;21543;-67
2022/09/20 02:46:50;;;;;;;5.30;2.75;;;;;;;10.52;82.54;99887.62;1682200;85;21313;-65
2022/09/20 02:49:48;;;;;;;6.63;2.90;;;;;;;10.48;82.84;99892.67;1682236;85;21018;-65
2022/09/20 02:53:01;;;;;;;8.88;4.08;;;;;;;10.48;82.84;99892.67;1682208;85;21028;-66
2022/09/20 02:56:02;;;;;;;7.45;3.83;;;;;;;10.48;82.81;99897.62;1682101;85;21095;-66
2022/09/20 02:58:54;;;;;;;10.20;4.30;;;;;;;10.43;82.83;99885.08;1689454;84;21016;-66
2022/09/20 03:02:03;;;;;;;10.05;4.42;;;;;;;10.35;82.93;99892.09;1710753;83;21035;-65
2022/09/20 03:04:55;;;;;;;7.17;3.22;;;;;;;10.29;83.10;99888.83;1710598;83;21025;-65
2022/09/20 03:07:44;;;;;;;7.70;3.10;;;;;;;10.20;83.43;99885.97;1710341;84;21111;-65
2022/09/20 03:10:34;;;;;;;7.72;3.20;;;;;;;10.17;83.90;99891.30;1710061;83;21142;-65
2022/09/20 03:13:50;;;;;;;4.45;2.67;;;;;;;10.21;84.16;99891.77;1707663;82;21004;-65
2022/09/20 03:16:41;;;;;;;9.78;3.30;;;;;;;10.27;84.26;99889.56;1667607;85;21005;-65
2022/09/20 03:19:16;;;;;;;7.78;3.15;;;;;;;10.34;84.24;99890.41;1667424;86;21024;-65
2022/09/20 03:22:25;;;;;;;9.68;3.45;;;;;;;10.37;84.20;99898.21;1703862;84;21043;-65
2022/09/20 03:25:36;;;;;;;10.32;3.22;;;;;;;10.39;84.10;99896.11;1667495;85;21044;-66
2022/09/20 03:28:45;;;;;;;8.73;3.47;;;;;;;10.42;84.07;99903.09;1703567;84;21079;-66
2022/09/20 03:31:23;;;;;;;8.58;3.45;;;;;;;10.46;84.01;99907.10;1703474;84;21099;-66
2022/09/20 03:34:07;;;;;;;6.08;3.27;;;;;;;10.46;83.91;99911.20;1674282;85;21485;-66
2022/09/20 03:36:54;;;;;;;7.40;3.47;;;;;;;10.47;83.84;99911.53;1710757;83;21048;-67
2022/09/20 03:39:52;;;;;;;10.43;4.05;;;;;;;10.44;83.87;99910.05;1710597;84;21102;-64
2022/09/20 03:42:28;;;;;;;17.55;6.65;;;;;;;10.44;83.95;99917.42;1710718;83;21067;-67
2022/09/20 03:45:34;;;;;;;15.93;5.60;;;;;;;10.44;84.13;99921.00;1700960;83;21110;-66
2022/09/20 03:48:32;;;;;;;11.00;5.35;;;;;;;10.47;84.12;99921.11;1671041;84;21051;-66
2022/09/20 03:51:28;;;;;;;13.90;5.10;;;;;;;10.48;84.05;99925.02;1684317;84;21099;-66
2022/09/20 03:54:36;;;;;;;16.30;5.97;;;;;;;10.47;84.10;99928.80;1661291;84;21145;-64
2022/09/20 03:57:36;;;;;;;14.90;5.15;;;;;;;10.44;84.17;99928.38;1624735;87;21571;-65
2022/09/20 04:00:33;;;;;;;16.00;4.67;;;;;;;10.42;84.28;99927.74;1624909;88;21123;-65
2022/09/20 04:03:34;;;;;;;12.85;4.53;;;;;;;10.38;84.34;99925.91;1617446;88;21099;-66
2022/09/20 04:06:47;;;;;;;8.38;4.22;;;;;;;10.40;84.50;99925.21;1624871;88;21119;-66
2022/09/20 04:09:52;;;;;;;8.88;3.58;;;;;;;10.40;84.65;99927.95;1618462;88;21080;-65
2022/09/20 04:13:09;;;;;;;8.10;3.75;;;;;;;10.42;84.80;99924.48;1631946;87;21072;-65
2022/09/20 04:16:11;;;;;;;9.88;3.70;;;;;;;10.44;84.84;99924.27;1630132;87;21472;-65
2022/09/20 04:18:48;;;;;;;9.48;3.35;;;;;;;10.46;84.87;99935.33;1617980;87;21145;-66
2022/09/20 04:22:00;;;;;;;10.70;3.83;;;;;;;10.51;84.85;99921.54;1630189;87;21072;-66
2022/09/20 04:24:55;;;;;;;9.50;3.70;;;;;;;10.55;84.83;99921.44;1641161;87;21076;-67
2022/09/20 04:27:38;;;;;;;7.78;4.05;;;;;;;10.57;84.70;99920.70;1686882;84;21027;-67
2022/09/20 04:30:17;;;;;;;10.68;3.67;;;;;;;10.58;84.69;99925.13;1686862;85;21468;-66
2022/09/20 04:33:03;;;;;;;11.03;4.62;;;;;;;10.65;84.63;99928.19;1686128;84;21434;-65
2022/09/20 04:36:30;;;;;;;5.97;4.10;;;;;;;10.72;84.49;99925.45;1687003;84;21062;-65
2022/09/20 04:39:23;;;;;;;9.43;4.12;;;;;;;10.81;84.30;99928.30;1686851;84;21525;-68
2022/09/20 04:42:37;;;;;;;11.55;4.67;;;;;;;10.83;83.87;99933.04;1686945;84;21074;-67
2022/09/20 04:45:32;;;;;;;11.65;3.72;;;;;;;10.86;83.65;99935.36;1683472;84;21526;-66
2022/09/20 04:48:36;;;;;;;8.88;3.90;;;;;;;10.88;83.36;99934.63;1710322;83;21464;-67
2022/09/20 04:51:47;;;;;;;9.58;3.70;;;;;;;10.93;83.14;99939.47;1710406;84;21543;-65
2022/09/20 04:54:44;;;;;;;5.95;3.47;;;;;;;10.97;83.05;99936.62;1710459;83;21075;-67
2022/09/20 04:57:36;;;;;;;5.40;3.05;;;;;;;11.07;82.74;99943.92;1710629;83;21043;-66
2022/09/20 05:00:19;;;;;;;7.50;3.00;;;;;;;11.15;82.29;99942.86;1710448;83;21072;-65
2022/09/20 05:03:19;;;;;;;5.55;3.10;;;;;;;11.23;81.88;99944.00;1690420;84;21032;-68
2022/09/20 05:06:26;;;;;;;3.85;2.60;;;;;;;11.30;81.42;99947.05;1710470;83;21484;-66
2022/09/20 05:09:15;;;;;;;5.95;3.22;;;;;;;11.35;80.85;99948.63;1710434;83;21488;-68
2022/09/20 05:12:29;;;;;;;7.47;2.77;;;;;;;11.43;80.43;99953.04;1705901;82;21080;-66
2022/09/20 05:15:07;;;;;;;6.50;2.83;;;;;;;11.47;79.91;99942.48;1711054;82;21059;-66
2022/09/20 05:17:55;;;;;;;6.33;3.00;;;;;;;11.52;79.62;99941.31;1720500;82;20988;-64
2022/09/20 05:20:44;;;;;;;;;;;;;;;11.57;79.26;99938.23;1742663;82;21012;-65
2022/09/20 05:23:52;;;;;;;5.87;3.10;;;;;;;11.61;78.94;99938.11;1739838;82;20590;-67
2022/09/20 05:26:54;;;;;;;7.08;2.90;;;;;;;11.65;78.63;99942.64;1739997;82;21502;-66
2022/09/20 05:30:03;;;;;;;6.17;3.40;;;;;;;11.68;78.23;99938.94;1704575;84;21108;-67
2022/09/20 05:32:57;;;;;;;4.83;2.92;;;;;;;11.72;78.04;99931.98;1739904;82;21499;-67
2022/09/20 05:35:35;;;;;;;7.42;2.87;;;;;;;11.76;77.95;99928.28;1739600;82;21078;-68
2022/09/20 05:38:46;;;;;;;8.10;3.00;;;;;;;11.81;77.91;99929.03;1732689;82;21091;-67
2022/09/20 05:41:41;;;;;;;6.25;2.58;;;;;;;11.84;77.94;99927.22;1594792;84;21099;-67
2022/09/20 05:44:58;;;;;;;6.37;3.02;;;;;;;11.87;77.85;99932.28;1659478;86;21095;-68
2022/09/20 05:47:58;;;;;;;4.80;2.90;;;;;;;11.91;77.98;99930.78;1688410;82;21036;-67
2022/09/20 05:50:42;;;;;;;4.83;2.27;;;;;;;11.94;77.85;99928.44;1676246;85;21500;-66
2022/09/20 05:53:44;;;;;;;5.75;2.58;;;;;;;11.95;77.86;99929.28;1643708;86;21141;-67
2022/09/20 05:56:51;;;;;;;5.12;2.92;;;;;;;11.99;77.94;99930.53;1620205;88;21084;-66
2022/09/20 05:59:30;;;;;;;7.75;3.10;;;;;;;12.02;77.89;99936.43;1669573;85;21019;-66
2022/09/20 06:02:26;;;;;;;5.95;3.22;;;;;;;12.02;77.89;99935.06;1710372;84;21071;-66
2022/09/20 06:05:34;;;;;;;3.20;2.37;;;;;;;12.00;78.00;99935.80;1710362;84;21035;-66
2022/09/20 06:08:21;;;;;;;8.88;3.05;;;;;;;12.04;78.09;99932.09;1710655;84;21460;-66
2022/09/20 06:11:26;;;;;;;10.72;3.77;;;;;;;12.10;78.09;99937.23;1710518;84;21518;-65
2022/09/20 06:14:15;;;;;;;7.72;3.95;;;;;;;12.12;78.19;99932.37;1710036;84;21534;-67
2022/09/20 06:16:59;;;;;;;3.95;2.52;;;;;;;12.15;77.98;99930.56;1710488;84;21059;-66
2022/09/20 06:20:04;;;;;;;7.15;2.70;;;;;;;12.12;77.92;99935.95;1733421;82;21040;-68
2022/09/20 06:22:46;;;;;;;5.12;2.80;;;;;;;12.08;77.92;99933.34;1739800;82;21472;-67
2022/09/20 06:25:29;;;;;;;6.65;3.00;;;;;;;12.11;78.05;99938.39;1739670;82;21032;-67
2022/09/20 06:28:05;;;;;;;7.72;2.90;;;;;;;12.13;78.02;99939.02;1739750;82;21027;-67
2022/09/20 06:30:40;;;;;;;9.83;3.30;;;;;;;12.16;77.97;99928.97;1704888;84;21072;-66
2022/09/20 06:33:17;;;;;;;5.90;3.47;;;;;;;12.17;77.98;99931.18;1740062;82;21097;-66
2022/09/20 06:42:38;;;;;;;5.97;2.95;;;;;;;12.18;77.83;99932.33;1739811;82;21008;-68
2022/09/20 06:45:08;;;;;;;4.00;2.17;;;;;;;12.21;77.85;99929.15;1739528;82;21420;-67
2022/09/20 06:47:39;;;;;;;9.75;4.17;;;;;;;12.21;77.81;99929.15;1683962;84;21036;-68
2022/09/20 06:50:15;;;;;;;4.60;2.60;;;;;;;12.24;77.84;99931.45;1683905;84;21139;-67
2022/09/20 06:52:46;;;;;;;6.22;2.90;;;;;;;12.27;77.79;99932.39;1655028;87;21135;-67
2022/09/20 06:55:21;;;;;;;7.58;3.15;;;;;;;12.29;77.63;99931.64;1683176;84;21492;-66
2022/09/20 06:57:54;;;;;;;10.95;3.42;;;;;;;12.30;77.55;99930.57;1655022;86;21084;-66
2022/09/20 07:00:24;;;;;;;7.10;3.25;;;;;;;12.32;77.39;99931.73;1683967;84;21071;-67
2022/09/20 07:02:55;;;;;;;8.10;3.25;;;;;;;12.30;77.39;99920.95;1654902;87;21077;-68
2022/09/20 07:05:25;;;;;;;8.30;4.60;;;;;;;12.32;77.43;99928.98;1683785;84;21476;-66
2022/09/20 07:07:59;;;;;;;8.38;3.45;;;;;;;12.33;77.39;99921.05;1655030;87;21064;-67
2022/09/20 07:10:29;;;;;;;8.48;3.35;;;;;;;12.34;77.30;99922.20;1656395;85;21027;-66
2022/09/20 07:13:00;;;;;;;13.58;4.17;;;;;;;12.34;76.88;99921.36;1619204;88;21080;-66
2022/09/20 07:15:32;;;;;;;5.45;3.00;;;;;;;12.33;77.14;99919.67;1603661;89;21116;-70
2022/09/20 07:18:02;;;;;;;7.40;3.67;;;;;;;12.35;77.70;99914.30;1619264;87;21113;-66
2022/09/20 07:20:32;;;;;;;4.92;3.27;;;;;;;12.40;78.15;99921.88;1603491;89;21084;-67
2022/09/20 07:23:02;;;;;;;7.37;3.02;;;;;;;12.41;78.47;99920.81;1619142;87;21570;-65
2022/09/20 07:25:33;;;;;;;4.58;3.05;;;;;;;12.44;78.89;99922.28;1619605;88;21092;-65
2022/09/20 07:28:03;;;;;;;6.65;3.77;;;;;;;12.46;78.86;99928.39;1603523;89;21099;-66
2022/09/20 07:30:33;;;;;;;10.63;3.80;;;;;;;12.45;79.10;99921.22;1661986;84;21115;-68
2022/09/20 07:33:04;;;;;;;7.37;3.83;;;;;;;12.46;79.42;99927.86;1651395;87;21011;-66
2022/09/20 07:35:34;;;;;;;5.85;3.05;;;;;;;12.50;79.59;99936.51;1667772;86;21075;-67
2022/09/20 07:38:04;;;;;;;6.97;3.60;;;;;;;12.54;79.82;99933.09;1651265;87;21035;-67
2022/09/20 07:44:54;;;;;;;6.97;3.40;;;;;;;12.48;79.50;99931.77;1651362;87;21567;-68
2022/09/20 07:47:25;;;;;;;7.80;3.45;;;;;;;12.50;79.46;99932.38;1672241;84;21475;-68
2022/09/20 07:49:54;;;;;;;6.33;4.58;;;;;;;12.57;79.64;99925.78;1668378;84;21086;-67
2022/09/20 07:52:25;;;;;;;6.00;3.35;;;;;;;12.67;79.74;99932.16;1666149;84;21082;-68
2022/09/20 07:54:55;;;;;;;10.18;3.55;;;;;;;12.78;79.82;99932.80;1684350;85;21467;-67
2022/09/20 07:57:24;;;;;;;6.97;3.10;;;;;;;12.84;79.22;99934.66;1683178;84;21077;-69
2022/09/20 07:59:53;;;;;;;7.60;3.12;;;;;;;12.90;79.01;99931.55;1670666;84;21537;-68
2022/09/20 08:02:23;;;;;;;8.28;3.95;;;;;;;12.98;78.52;99930.73;1684238;85;21027;-71
2022/09/20 08:04:53;;;;;;;7.00;3.22;;;;;;;13.04;78.13;99938.65;1670353;86;21055;-70
2022/09/20 08:07:23;;;;;;;5.85;3.08;;;;;;;13.08;77.92;99943.16;1679724;84;21717;-70
2022/09/20 08:09:53;;;;;;;5.12;3.33;;;;;;;13.09;77.70;99936.06;1673207;84;21110;-70
2022/09/20 08:12:23;;;;;;;5.33;3.55;;;;;;;13.11;77.40;99938.59;1639834;86;21052;-70
2022/09/20 08:14:55;;;;;;;6.58;3.02;;;;;;;13.13;77.22;99938.67;1625979;88;21116;-71
2022/09/20 08:17:25;;;;;;;7.30;3.77;;;;;;;13.14;77.05;99934.02;1640194;86;21083;-69
2022/09/20 08:19:55;;;;;;;8.35;3.58;;;;;;;13.18;76.83;99932.52;1655886;87;21063;-71
2022/09/20 08:22:25;;;;;;;8.68;3.87;;;;;;;13.21;76.58;99932.91;1639892;86;21083;-70
2022/09/20 08:24:55;;;;;;;6.78;2.90;;;;;;;13.25;76.44;99937.42;1655954;87;21087;-71
2022/09/20 08:27:24;;;;;;;7.25;2.98;;;;;;;13.29;76.08;99940.03;1666428;85;21039;-69
2022/09/20 08:29:56;;;;;;;5.72;3.20;;;;;;;13.24;75.31;99942.09;1671954;84;21078;-68
2022/09/20 08:32:25;;;;;;;10.65;3.77;;;;;;;13.16;75.04;99938.75;1670424;85;21028;-71
2022/09/20 08:34:55;;;;;;;6.47;3.33;;;;;;;13.14;75.13;99946.39;1677700;84;21031;-71
2022/09/20 08:37:26;;;;;;;7.12;3.27;;;;;;;13.11;75.06;99936.68;1684141;85;21067;-69
2022/09/20 08:39:56;;;;;;;7.47;3.80;;;;;;;13.08;75.28;99941.25;1669985;86;21436;-70
2022/09/20 08:42:31;;;;;;;7.75;3.62;;;;;;;13.09;75.49;99935.22;1685646;84;21087;-71
2022/09/20 08:45:06;;;;;;;11.33;4.15;;;;;;;13.06;75.52;99935.67;1669344;84;21079;-72
2022/09/20 08:47:38;;;;;;;6.55;3.20;;;;;;;12.99;75.88;99926.91;1677485;85;21095;-69
2022/09/20 08:50:10;;;;;;;8.20;3.80;;;;;;;12.98;76.26;99925.23;1714084;82;21054;-69
2022/09/20 08:52:41;;;;;;;9.70;4.08;;;;;;;13.01;76.35;99934.97;1739731;82;21404;-68
2022/09/20 08:55:21;;;;;;;7.85;3.80;;;;;;;13.05;76.52;99933.99;1719116;82;21513;-70
2022/09/20 08:57:54;;;;;;;8.48;4.55;;;;;;;13.08;76.71;99926.66;1717148;82;21011;-70
2022/09/20 09:00:34;;;;;;;8.30;4.25;;;;;;;13.12;76.71;99927.89;1686906;82;21055;-69
2022/09/20 09:03:12;;;;;;;11.57;4.05;;;;;;;13.16;76.80;99933.25;1686625;84;21027;-69
2022/09/20 09:05:50;;;;;;;10.50;3.95;;;;;;;13.18;77.14;99925.64;1676318;84;21083;-71
2022/09/20 09:08:25;;;;;;;8.90;4.40;;;;;;;13.18;77.47;99929.77;1727953;82;21334;-71
2022/09/20 09:10:58;;;;;;;11.25;4.90;;;;;;;13.19;78.09;99924.58;1718605;82;21020;-69
2022/09/20 09:14:00;;;;;;;14.18;5.10;;;;;;;13.23;78.68;99927.18;1651834;85;21123;-68
2022/09/20 09:16:33;;;;;;;9.85;4.37;;;;;;;13.28;79.29;99924.59;1712164;84;21031;-69
2022/09/20 09:19:30;;;;;;;13.53;4.37;;;;;;;13.35;79.44;99921.23;1711244;84;21059;-68
2022/09/20 09:22:03;;;;;;;11.90;4.70;;;;;;;13.40;79.68;99925.52;1710286;84;21521;-69
2022/09/20 09:24:33;;;;;;;9.65;4.25;;;;;;;13.42;79.71;99922.01;1693821;84;21544;-68
2022/09/20 09:27:18;;;;;;;8.63;3.77;;;;;;;13.45;79.85;99922.93;1647337;87;21071;-70
2022/09/20 09:29:53;;;;;;;8.10;3.75;;;;;;;13.50;79.51;99920.33;1680197;85;21053;-71
2022/09/20 09:32:29;;;;;;;8.03;3.92;;;;;;;13.46;78.10;99927.36;1680311;85;21063;-70
2022/09/20 09:35:24;;;;;;;8.93;4.15;;;;;;;13.43;77.69;99921.48;1647463;87;21008;-69
2022/09/20 09:37:59;;;;;;;10.98;5.17;;;;;;;13.40;77.24;99927.44;1680247;85;21049;-68
2022/09/20 09:40:30;;;;;;;9.63;4.20;;;;;;;13.29;77.32;99922.15;1680378;85;21067;-69
2022/09/20 09:43:01;;;;;;;9.08;3.92;;;;;;;13.25;78.23;99920.92;1704894;84;21004;-70
2022/09/20 09:45:37;;;;;;;9.78;3.80;;;;;;;13.25;78.42;99926.42;1738857;82;21032;-68
2022/09/20 09:48:27;;;;;;;14.65;6.58;;;;;;;13.25;78.82;99921.77;1730150;82;21098;-69
2022/09/20 09:51:17;;;;;;;7.65;4.60;;;;;;;13.21;78.52;99918.31;1706179;84;21044;-67
2022/09/20 09:53:53;;;;;;;6.78;3.80;;;;;;;13.17;78.44;99915.71;1670198;86;21071;-68
2022/09/20 09:56:46;;;;;;;7.00;4.28;;;;;;;13.14;78.39;99910.63;1657567;86;21102;-69
2022/09/20 09:59:39;;;;;;;5.45;2.80;;;;;;;13.15;78.78;99914.53;1670129;86;21028;-69
2022/09/20 10:02:28;;;;;;;5.22;2.75;;;;;;;13.17;78.63;99914.33;1657993;86;21066;-70
2022/09/20 10:05:13;;;;;;;4.87;3.30;;;;;;;13.18;78.42;99907.23;1670279;86;21028;-69
2022/09/20 10:08:14;;;;;;;5.78;2.72;;;;;;;13.26;78.33;99908.84;1658140;86;21294;-73
2022/09/20 10:11:11;;;;;;;4.95;2.60;;;;;;;13.30;77.99;99904.58;1670223;84;21493;-73
2022/09/20 10:13:52;;;;;;;4.22;2.60;;;;;;;13.38;78.06;99902.89;1658185;86;21094;-69
2022/09/20 10:16:54;;;;;;;5.85;2.40;;;;;;;13.40;77.97;99906.27;1670011;86;21490;-68
2022/09/20 10:20:09;;;;;;;3.33;2.17;;;;;;;13.42;78.41;99897.24;1638277;86;21087;-69
2022/09/20 10:22:47;;;;;;;3.27;1.80;;;;;;;13.43;77.72;99904.42;1670315;85;21036;-67
2022/09/20 10:25:42;;;;;;;2.05;1.45;;;;;;;13.36;76.56;99892.66;1652516;87;21107;-66
2022/09/20 10:28:47;;;;;;;4.03;1.77;;;;;;;13.30;75.77;99896.31;1654600;87;21082;-68
2022/09/20 10:31:42;;;;;;;3.98;2.05;;;;;;;13.22;75.49;99896.61;1669929;85;21095;-70
2022/09/20 10:34:50;;;;;;;2.15;1.60;;;;;;;13.09;75.78;99896.72;1669878;86;21118;-68
2022/09/20 10:37:39;;;;;;;3.80;1.60;;;;;;;13.01;76.44;99895.94;1670486;86;21071;-68
2022/09/20 10:40:23;;;;;;;3.10;1.90;;;;;;;12.92;76.68;99887.64;1669907;84;21111;-69
2022/09/20 10:43:14;;;;;;;3.08;2.10;;;;;;;12.85;77.07;99888.77;1664342;86;21541;-70
2022/09/20 10:46:06;;;;;;;4.53;2.15;;;;;;;12.79;77.44;99886.91;1642928;87;21083;-69
2022/09/20 10:48:51;;;;;;;3.27;2.10;;;;;;;12.79;78.30;99878.13;1627341;87;21014;-69
2022/09/20 10:51:38;;;;;;;4.30;2.45;;;;;;;12.81;79.07;99877.91;1666887;85;20995;-72
2022/09/20 10:54:37;;;;;;;3.87;1.85;;;;;;;12.81;79.84;99878.75;1659779;86;21432;-73
2022/09/20 10:57:46;;;;;;;5.03;2.47;;;;;;;12.80;80.04;99875.69;1686804;85;21071;-71
2022/09/20 11:00:34;;;;;;;5.72;2.33;;;;;;;12.79;80.49;99870.42;1684096;85;21056;-71
2022/09/20 11:03:32;;;;;;;6.30;2.27;;;;;;;12.74;81.14;99871.09;1670152;86;21047;-69
2022/09/20 11:06:42;;;;;;;6.55;2.12;;;;;;;12.73;81.39;99858.95;1683714;85;21074;-69
2022/09/20 11:09:15;;;;;;;10.72;2.98;;;;;;;12.73;81.96;99856.20;1684385;85;21005;-70
2022/09/20 11:11:57;;;;;;;14.07;2.77;;;;;;;12.75;82.06;99858.19;1660144;85;21049;-66
2022/09/20 11:14:35;;;;;;;10.82;2.80;;;;;;;12.75;81.81;99857.66;1681431;85;21050;-67
2022/09/20 11:17:15;;;;;;;10.18;3.67;;;;;;;12.75;81.76;99857.66;1669913;85;21103;-69
2022/09/20 11:20:05;;;;;;;8.10;2.25;;;;;;;12.73;81.30;99858.41;1686688;84;21138;-70
2022/09/20 11:23:01;;;;;;;10.20;2.58;;;;;;;12.65;81.20;99854.05;1638686;86;21493;-69
2022/09/20 11:25:45;;;;;;;4.47;1.90;;;;;;;12.59;81.40;99854.94;1616496;87;21127;-69
2022/09/20 11:28:23;;;;;;;8.38;2.30;;;;;;;12.61;81.87;99861.05;1633119;88;21535;-69
2022/09/20 11:31:13;;;;;;;7.22;2.47;;;;;;;12.61;81.76;99860.21;1643006;87;21124;-70
2022/09/20 11:33:57;;;;;;;7.72;2.10;;;;;;;12.57;82.04;99859.82;1652787;86;21075;-69
2022/09/20 11:36:39;;;;;;;5.10;2.12;;;;;;;12.56;82.60;99870.50;1655189;87;21076;-70
2022/09/20 11:39:19;;;;;;;6.65;3.20;;;;;;;12.57;83.11;99863.94;1641483;87;21091;-70
2022/09/20 11:41:50;;;;;;;3.98;2.33;;;;;;;12.59;83.68;99861.81;1664921;85;21063;-69
2022/09/20 11:44:20;;;;;;;6.35;2.70;;;;;;;12.61;83.96;99861.59;1656811;85;21108;-70
2022/09/20 11:46:57;;;;;;;6.10;2.72;;;;;;;12.59;83.71;99861.81;1656563;85;21020;-69
2022/09/20 11:49:47;;;;;;;5.53;2.50;;;;;;;12.60;83.89;99868.15;1654438;86;21459;-70
2022/09/20 11:52:40;;;;;;;9.40;3.08;;;;;;;12.57;84.29;99862.57;1668637;84;21036;-71
2022/09/20 11:55:57;;;;;;;7.58;2.80;;;;;;;12.58;84.78;99853.79;1730784;82;21044;-70
2022/09/20 11:58:27;;;;;;;7.30;3.00;;;;;;;12.57;85.20;99853.48;1704631;84;21028;-65
2022/09/20 12:00:57;;;;;;;8.78;3.67;;;;;;;12.59;85.74;99848.61;1739522;82;21091;-71
2022/09/20 12:03:38;;;;;;;10.23;3.60;;;;;;;12.62;86.09;99845.41;1704573;84;21036;-71
2022/09/20 12:06:22;;;;;;;17.85;6.97;;;;;;;12.67;86.15;99848.32;1739526;82;21020;-71
2022/09/20 12:08:53;;;;;;;13.58;4.58;;;;;;;12.69;86.15;99851.69;1735991;82;21060;-70
2022/09/20 12:11:33;;;;;;;11.12;4.10;;;;;;;12.71;85.94;99852.30;1739895;82;21024;-71
2022/09/20 12:14:18;;;;;;;11.22;3.85;;;;;;;12.70;85.78;99855.58;1739596;82;21080;-70
2022/09/20 12:16:48;;;;;;;10.30;3.92;;;;;;;12.69;85.81;99848.41;1739749;82;21024;-70
2022/09/20 12:19:35;;;;;;;12.28;3.58;;;;;;;12.68;85.99;99850.84;1739880;82;21027;-72
2022/09/20 12:22:10;;;;;;;13.50;5.40;;;;;;;12.69;85.65;99845.66;1739867;82;21478;-72
2022/09/20 12:24:42;;;;;;;12.25;5.62;;;;;;;12.63;85.34;99847.09;1739875;82;21047;-73
2022/09/20 12:27:31;;;;;;;9.38;4.22;;;;;;;12.60;85.38;99848.91;1704736;84;21069;-70
2022/09/20 12:30:20;;;;;;;8.73;3.62;;;;;;;12.59;85.42;99849.44;1709597;84;21072;-71
2022/09/20 12:32:57;;;;;;;7.62;3.35;;;;;;;12.60;85.18;99851.13;1689911;84;21083;-72
2022/09/20 12:35:58;;;;;;;9.90;3.47;;;;;;;12.60;85.44;99843.41;1710334;83;21032;-69
2022/09/20 12:38:30;;;;;;;13.48;3.15;;;;;;;12.62;85.88;99833.04;1710128;84;21075;-66
2022/09/20 12:41:01;;;;;;;10.20;3.40;;;;;;;12.65;86.21;99838.92;1710049;83;21075;-67
2022/09/20 12:43:32;;;;;;;13.08;4.00;;;;;;;12.68;86.49;99830.23;1681541;84;21008;-69
2022/09/20 12:46:02;;;;;;;15.85;4.15;;;;;;;12.73;86.92;99840.55;1710154;84;21044;-70
2022/09/20 12:48:36;;;;;;;18.92;4.15;;;;;;;12.76;87.34;99837.34;1675025;85;21048;-70
2022/09/20 12:54:13;;;;;;;14.68;3.83;;;;;;;12.77;87.41;99839.03;1684956;85;21661;-69
2022/09/20 12:56:45;;;;;;;12.25;4.12;;;;;;;12.75;87.33;99831.55;1658904;85;21116;-69
2022/09/20 12:59:26;;;;;;;11.80;3.30;;;;;;;12.73;87.28;99841.08;1684811;85;21051;-70
2022/09/20 13:01:55;;;;;;;7.30;3.22;;;;;;;12.71;87.18;99830.31;1684012;85;21054;-70
2022/09/20 13:04:54;;;;;;;6.92;3.45;;;;;;;12.69;87.44;99820.92;1657111;85;21047;-69
2022/09/20 13:07:42;;;;;;;7.05;3.12;;;;;;;12.69;87.51;99819.55;1683369;85;21054;-70